KHNB

Huntingburg Airport

Huntingburg, Indiana, USA
METAR KHNB 151256Z AUTO 29007KT 10SM OVC033 M02/M05 A3009 RMK AO2 SLP197 T10171050 FZRANO
Observed Flight Rules
Dec-15 @ 12:56 UTC (an hour ago) Visual Flight Rules
Wind Visibility Clouds
290° at 7 knots 10 miles
  • Overcast at 3,300' AGL
Temperatures Readings
Current -2°C / 28°F
Dewpoint -5°C / 23°F
Humidity 80%
Altimeter 30.09" Hg
Pressure 1019.7 hPa
Elevation 161
METAR KHNB 151256Z AUTO 29007KT 10SM OVC033 M02/M05 A3009 RMK AO2 SLP197 T10171050 FZRANO
Observed Flight Rules
Dec-15 @ 12:56 UTC
(an hour ago)
VFR
Wind Visibility
290° at 7 knots 10 miles
Clouds
  • Overcast at 3,300' AGL
Temperature Dewpoint
-2°C / 28°F -5°C / 23°F
Humidity Altimeter Pressure
80% 30.09" Hg 1019.7 hPa